sensor_id;sensor_type;location;lat;lon;timestamp;P1;P2;P0
61542;PMS5003;47414;43.168;44.812;2022-09-13T00:00:25;45.00;39.00;25.75
61542;PMS5003;47414;43.168;44.812;2022-09-13T00:05:25;48.50;41.25;28.00
61542;PMS5003;47414;43.168;44.812;2022-09-13T00:10:25;50.50;41.75;27.75
61542;PMS5003;47414;43.168;44.812;2022-09-13T00:15:26;45.25;37.25;27.00
61542;PMS5003;47414;43.168;44.812;2022-09-13T00:20:26;49.25;40.75;28.00
61542;PMS5003;47414;43.168;44.812;2022-09-13T00:25:27;43.50;36.50;25.75
61542;PMS5003;47414;43.168;44.812;2022-09-13T00:30:27;45.00;38.00;27.00
61542;PMS5003;47414;43.168;44.812;2022-09-13T00:35:27;48.25;40.50;27.00
61542;PMS5003;47414;43.168;44.812;2022-09-13T00:40:28;44.50;37.75;25.25
61542;PMS5003;47414;43.168;44.812;2022-09-13T00:45:28;38.25;33.50;22.25
61542;PMS5003;47414;43.168;44.812;2022-09-13T00:50:30;44.25;36.00;24.00
61542;PMS5003;47414;43.168;44.812;2022-09-13T00:55:42;33.50;30.50;21.50
61542;PMS5003;47414;43.168;44.812;2022-09-13T01:00:43;37.50;34.00;23.25
61542;PMS5003;47414;43.168;44.812;2022-09-13T01:05:45;46.75;39.00;24.50
61542;PMS5003;47414;43.168;44.812;2022-09-13T01:10:46;44.50;37.00;26.00
61542;PMS5003;47414;43.168;44.812;2022-09-13T01:15:47;47.25;38.75;26.25
61542;PMS5003;47414;43.168;44.812;2022-09-13T01:46:38;39.75;35.50;24.00
61542;PMS5003;47414;43.168;44.812;2022-09-13T01:51:47;40.75;35.25;24.00
61542;PMS5003;47414;43.168;44.812;2022-09-13T02:02:09;18.00;17.50;16.00
61542;PMS5003;47414;43.168;44.812;2022-09-13T02:07:18;38.25;33.25;22.25
61542;PMS5003;47414;43.168;44.812;2022-09-13T02:12:23;37.75;33.75;23.00
61542;PMS5003;47414;43.168;44.812;2022-09-13T02:17:25;39.00;33.50;22.25
61542;PMS5003;47414;43.168;44.812;2022-09-13T02:22:30;45.50;36.75;25.00
61542;PMS5003;47414;43.168;44.812;2022-09-13T02:27:31;51.25;41.50;27.75
61542;PMS5003;47414;43.168;44.812;2022-09-13T02:32:34;46.00;39.00;26.50
61542;PMS5003;47414;43.168;44.812;2022-09-13T02:37:35;39.50;33.50;24.00
61542;PMS5003;47414;43.168;44.812;2022-09-13T02:42:41;54.00;44.25;27.50
61542;PMS5003;47414;43.168;44.812;2022-09-13T02:47:53;50.75;41.25;27.00
61542;PMS5003;47414;43.168;44.812;2022-09-13T02:58:09;39.75;34.75;25.00
61542;PMS5003;47414;43.168;44.812;2022-09-13T03:03:11;45.75;37.75;26.00
61542;PMS5003;47414;43.168;44.812;2022-09-13T03:08:13;37.00;32.50;23.50
61542;PMS5003;47414;43.168;44.812;2022-09-13T03:18:37;39.50;34.50;23.00
61542;PMS5003;47414;43.168;44.812;2022-09-13T03:23:44;38.75;33.00;24.00
61542;PMS5003;47414;43.168;44.812;2022-09-13T03:38:53;35.80;32.60;23.80
61542;PMS5003;47414;43.168;44.812;2022-09-13T03:43:55;25.00;24.75;17.50
61542;PMS5003;47414;43.168;44.812;2022-09-13T03:49:08;40.50;35.00;23.00
61542;PMS5003;47414;43.168;44.812;2022-09-13T03:54:23;37.75;33.00;22.75
61542;PMS5003;47414;43.168;44.812;2022-09-13T03:59:24;36.25;33.50;22.50
61542;PMS5003;47414;43.168;44.812;2022-09-13T04:04:24;29.50;28.00;21.50
61542;PMS5003;47414;43.168;44.812;2022-09-13T04:09:24;25.00;25.00;17.00
61542;PMS5003;47414;43.168;44.812;2022-09-13T04:14:24;19.20;19.00;13.20
61542;PMS5003;47414;43.168;44.812;2022-09-13T04:19:25;21.25;20.00;14.50
61542;PMS5003;47414;43.168;44.812;2022-09-13T04:24:26;25.25;24.75;16.00
61542;PMS5003;47414;43.168;44.812;2022-09-13T04:29:26;26.00;25.00;18.25
61542;PMS5003;47414;43.168;44.812;2022-09-13T04:34:27;25.75;24.50;15.00
61542;PMS5003;47414;43.168;44.812;2022-09-13T04:39:27;18.60;18.60;13.00
61542;PMS5003;47414;43.168;44.812;2022-09-13T04:44:27;19.25;18.50;12.75
61542;PMS5003;47414;43.168;44.812;2022-09-13T04:49:28;20.50;19.00;11.75
61542;PMS5003;47414;43.168;44.812;2022-09-13T04:54:28;8.25;8.25;4.00
61542;PMS5003;47414;43.168;44.812;2022-09-13T04:59:28;15.60;15.60;9.20
61542;PMS5003;47414;43.168;44.812;2022-09-13T05:04:29;9.25;8.00;5.25
61542;PMS5003;47414;43.168;44.812;2022-09-13T05:09:29;16.50;16.25;12.00
61542;PMS5003;47414;43.168;44.812;2022-09-13T05:14:29;6.25;6.25;3.25
61542;PMS5003;47414;43.168;44.812;2022-09-13T05:19:29;17.00;17.00;12.25
61542;PMS5003;47414;43.168;44.812;2022-09-13T05:24:30;14.50;14.50;11.75
61542;PMS5003;47414;43.168;44.812;2022-09-13T05:29:30;10.20;8.40;4.60
61542;PMS5003;47414;43.168;44.812;2022-09-13T05:34:30;23.75;22.50;15.75
61542;PMS5003;47414;43.168;44.812;2022-09-13T05:39:31;18.75;17.75;12.00
61542;PMS5003;47414;43.168;44.812;2022-09-13T05:44:31;15.40;14.60;8.20
61542;PMS5003;47414;43.168;44.812;2022-09-13T05:49:31;16.00;15.50;11.75
61542;PMS5003;47414;43.168;44.812;2022-09-13T05:54:32;10.75;10.75;6.50
61542;PMS5003;47414;43.168;44.812;2022-09-13T05:59:32;17.25;16.25;10.75
61542;PMS5003;47414;43.168;44.812;2022-09-13T06:04:34;19.75;19.75;14.25
61542;PMS5003;47414;43.168;44.812;2022-09-13T06:09:34;25.50;23.75;15.75
61542;PMS5003;47414;43.168;44.812;2022-09-13T06:14:34;27.50;24.50;16.25
61542;PMS5003;47414;43.168;44.812;2022-09-13T06:19:34;25.50;24.50;17.50
61542;PMS5003;47414;43.168;44.812;2022-09-13T06:24:35;27.50;26.25;18.50
61542;PMS5003;47414;43.168;44.812;2022-09-13T06:29:35;31.25;29.50;20.00
61542;PMS5003;47414;43.168;44.812;2022-09-13T06:34:36;22.50;22.00;15.00
61542;PMS5003;47414;43.168;44.812;2022-09-13T06:39:36;14.75;13.50;9.50
61542;PMS5003;47414;43.168;44.812;2022-09-13T06:44:36;24.80;23.80;15.80
61542;PMS5003;47414;43.168;44.812;2022-09-13T06:49:37;20.25;20.25;13.25
61542;PMS5003;47414;43.168;44.812;2022-09-13T06:54:37;18.50;17.00;13.25
61542;PMS5003;47414;43.168;44.812;2022-09-13T06:59:37;16.75;16.75;11.00
61542;PMS5003;47414;43.168;44.812;2022-09-13T07:04:38;15.25;14.75;10.00
61542;PMS5003;47414;43.168;44.812;2022-09-13T07:09:38;10.25;10.00;5.50
61542;PMS5003;47414;43.168;44.812;2022-09-13T07:14:38;11.60;11.60;7.00
61542;PMS5003;47414;43.168;44.812;2022-09-13T07:19:39;12.00;10.25;6.00
61542;PMS5003;47414;43.168;44.812;2022-09-13T07:24:39;14.50;13.00;9.00
61542;PMS5003;47414;43.168;44.812;2022-09-13T07:29:39;11.00;9.50;6.00
61542;PMS5003;47414;43.168;44.812;2022-09-13T07:34:40;15.50;14.25;8.25
61542;PMS5003;47414;43.168;44.812;2022-09-13T07:39:40;12.00;11.60;8.20
61542;PMS5003;47414;43.168;44.812;2022-09-13T07:44:40;10.40;10.00;6.00
61542;PMS5003;47414;43.168;44.812;2022-09-13T07:49:41;9.75;9.00;8.00
61542;PMS5003;47414;43.168;44.812;2022-09-13T07:54:41;9.25;9.25;6.00
61542;PMS5003;47414;43.168;44.812;2022-09-13T07:59:41;7.00;6.00;4.00
61542;PMS5003;47414;43.168;44.812;2022-09-13T08:04:42;9.25;8.25;6.00
61542;PMS5003;47414;43.168;44.812;2022-09-13T08:09:42;8.00;8.00;6.00
61542;PMS5003;47414;43.168;44.812;2022-09-13T08:14:42;6.00;5.00;4.00
61542;PMS5003;47414;43.168;44.812;2022-09-13T08:19:42;9.00;9.00;6.00
61542;PMS5003;47414;43.168;44.812;2022-09-13T08:24:43;6.33;6.33;4.00
61542;PMS5003;47414;43.168;44.812;2022-09-13T08:29:43;8.75;8.25;6.00
61542;PMS5003;47414;43.168;44.812;2022-09-13T08:34:43;6.75;6.75;5.00
61542;PMS5003;47414;43.168;44.812;2022-09-13T08:39:44;8.40;8.40;5.40
61542;PMS5003;47414;43.168;44.812;2022-09-13T08:44:44;7.75;7.50;5.00
61542;PMS5003;47414;43.168;44.812;2022-09-13T08:49:47;9.75;9.50;6.25
61542;PMS5003;47414;43.168;44.812;2022-09-13T08:54:49;5.00;5.00;4.00
61542;PMS5003;47414;43.168;44.812;2022-09-13T09:10:18;8.00;7.00;6.00
61542;PMS5003;47414;43.168;44.812;2022-09-13T09:15:19;3.00;3.00;2.00
61542;PMS5003;47414;43.168;44.812;2022-09-13T09:20:27;7.33;7.00;4.67
61542;PMS5003;47414;43.168;44.812;2022-09-13T09:25:29;6.00;6.00;4.00
61542;PMS5003;47414;43.168;44.812;2022-09-13T09:30:35;5.00;4.33;3.00
61542;PMS5003;47414;43.168;44.812;2022-09-13T09:40:52;5.33;4.67;3.00
61542;PMS5003;47414;43.168;44.812;2022-09-13T09:45:52;3.33;3.33;2.00
61542;PMS5003;47414;43.168;44.812;2022-09-13T09:50:55;10.67;10.00;6.67
61542;PMS5003;47414;43.168;44.812;2022-09-13T10:00:57;4.25;3.75;2.25
61542;PMS5003;47414;43.168;44.812;2022-09-13T10:11:04;6.33;5.33;4.33
61542;PMS5003;47414;43.168;44.812;2022-09-13T10:16:05;4.33;4.33;2.67
61542;PMS5003;47414;43.168;44.812;2022-09-13T10:21:22;4.33;4.33;3.00
61542;PMS5003;47414;43.168;44.812;2022-09-13T10:26:23;4.00;4.00;3.33
61542;PMS5003;47414;43.168;44.812;2022-09-13T10:31:27;5.00;5.00;3.33
61542;PMS5003;47414;43.168;44.812;2022-09-13T10:36:33;15.50;14.00;8.75
61542;PMS5003;47414;43.168;44.812;2022-09-13T10:41:35;6.00;6.00;4.00
61542;PMS5003;47414;43.168;44.812;2022-09-13T10:46:37;5.00;5.00;3.00
61542;PMS5003;47414;43.168;44.812;2022-09-13T10:51:39;6.00;6.00;4.00
61542;PMS5003;47414;43.168;44.812;2022-09-13T10:56:39;8.25;8.00;5.00
61542;PMS5003;47414;43.168;44.812;2022-09-13T11:02:26;7.00;5.75;4.25
61542;PMS5003;47414;43.168;44.812;2022-09-13T11:12:14;6.67;5.67;3.67
61542;PMS5003;47414;43.168;44.812;2022-09-13T11:27:49;7.00;6.75;4.50
61542;PMS5003;47414;43.168;44.812;2022-09-13T11:38:11;6.00;6.00;5.00
61542;PMS5003;47414;43.168;44.812;2022-09-13T11:43:20;8.75;7.75;5.00
61542;PMS5003;47414;43.168;44.812;2022-09-13T11:48:38;9.00;9.00;5.00
61542;PMS5003;47414;43.168;44.812;2022-09-13T11:58:50;9.00;8.50;5.00
61542;PMS5003;47414;43.168;44.812;2022-09-13T12:08:59;9.75;8.75;6.00
61542;PMS5003;47414;43.168;44.812;2022-09-13T12:14:06;10.25;10.25;6.25
61542;PMS5003;47414;43.168;44.812;2022-09-13T12:19:17;9.50;9.50;6.25
61542;PMS5003;47414;43.168;44.812;2022-09-13T12:30:13;15.00;14.00;9.00
61542;PMS5003;47414;43.168;44.812;2022-09-13T12:55:55;9.75;9.75;6.00
61542;PMS5003;47414;43.168;44.812;2022-09-13T13:01:09;8.00;8.00;6.00
61542;PMS5003;47414;43.168;44.812;2022-09-13T13:06:32;8.25;7.25;5.00
61542;PMS5003;47414;43.168;44.812;2022-09-13T13:11:40;12.00;11.00;6.75
61542;PMS5003;47414;43.168;44.812;2022-09-13T13:16:41;10.50;8.50;4.00
61542;PMS5003;47414;43.168;44.812;2022-09-13T13:21:41;8.00;7.25;6.00
61542;PMS5003;47414;43.168;44.812;2022-09-13T13:31:43;8.00;7.00;5.00
61542;PMS5003;47414;43.168;44.812;2022-09-13T13:36:44;6.00;6.00;4.00
61542;PMS5003;47414;43.168;44.812;2022-09-13T13:57:20;11.00;9.00;5.50
61542;PMS5003;47414;43.168;44.812;2022-09-13T14:02:25;7.00;7.00;5.00
61542;PMS5003;47414;43.168;44.812;2022-09-13T14:18:11;9.75;8.75;5.00
61542;PMS5003;47414;43.168;44.812;2022-09-13T14:23:17;9.75;9.25;6.00
61542;PMS5003;47414;43.168;44.812;2022-09-13T14:28:18;10.25;10.25;7.25
61542;PMS5003;47414;43.168;44.812;2022-09-13T14:33:22;9.25;8.50;6.00
61542;PMS5003;47414;43.168;44.812;2022-09-13T14:38:24;7.50;7.00;5.50
61542;PMS5003;47414;43.168;44.812;2022-09-13T14:43:26;7.25;7.25;4.50
61542;PMS5003;47414;43.168;44.812;2022-09-13T14:48:28;7.25;6.50;4.00
61542;PMS5003;47414;43.168;44.812;2022-09-13T14:53:32;6.50;6.00;4.00
61542;PMS5003;47414;43.168;44.812;2022-09-13T14:58:37;7.00;7.00;5.00
61542;PMS5003;47414;43.168;44.812;2022-09-13T15:03:42;4.50;4.50;4.00
61542;PMS5003;47414;43.168;44.812;2022-09-13T15:08:44;3.00;3.00;3.00
61542;PMS5003;47414;43.168;44.812;2022-09-13T15:13:45;3.00;3.00;2.75
61542;PMS5003;47414;43.168;44.812;2022-09-13T15:18:45;6.25;5.75;2.25
61542;PMS5003;47414;43.168;44.812;2022-09-13T15:23:49;9.25;8.25;5.00
61542;PMS5003;47414;43.168;44.812;2022-09-13T15:28:51;5.25;5.25;3.00
61542;PMS5003;47414;43.168;44.812;2022-09-13T15:34:11;8.00;8.00;6.00
61542;PMS5003;47414;43.168;44.812;2022-09-13T15:39:16;5.25;5.25;4.00
61542;PMS5003;47414;43.168;44.812;2022-09-13T15:44:16;7.75;7.50;5.00
61542;PMS5003;47414;43.168;44.812;2022-09-13T15:49:21;7.00;6.25;3.75
61542;PMS5003;47414;43.168;44.812;2022-09-13T15:54:22;7.50;7.00;4.50
61542;PMS5003;47414;43.168;44.812;2022-09-13T15:59:24;5.75;4.75;4.00
61542;PMS5003;47414;43.168;44.812;2022-09-13T16:04:24;6.25;6.25;4.00
61542;PMS5003;47414;43.168;44.812;2022-09-13T16:09:24;6.75;6.75;5.00
61542;PMS5003;47414;43.168;44.812;2022-09-13T16:14:25;7.50;6.00;4.25
61542;PMS5003;47414;43.168;44.812;2022-09-13T16:19:25;7.00;7.00;5.00
61542;PMS5003;47414;43.168;44.812;2022-09-13T16:24:25;6.25;6.25;5.00
61542;PMS5003;47414;43.168;44.812;2022-09-13T16:29:26;8.50;7.25;5.00
61542;PMS5003;47414;43.168;44.812;2022-09-13T16:34:26;9.25;9.25;6.75
61542;PMS5003;47414;43.168;44.812;2022-09-13T16:39:27;9.00;8.50;6.00
61542;PMS5003;47414;43.168;44.812;2022-09-13T16:44:27;7.00;6.50;5.25
61542;PMS5003;47414;43.168;44.812;2022-09-13T16:49:27;8.00;8.00;6.00
61542;PMS5003;47414;43.168;44.812;2022-09-13T16:54:28;8.50;8.50;5.00
61542;PMS5003;47414;43.168;44.812;2022-09-13T16:59:29;15.50;14.50;10.25
61542;PMS5003;47414;43.168;44.812;2022-09-13T17:04:29;11.25;11.25;7.25
61542;PMS5003;47414;43.168;44.812;2022-09-13T17:09:30;11.25;11.25;7.00
61542;PMS5003;47414;43.168;44.812;2022-09-13T17:14:30;10.75;10.75;7.00
61542;PMS5003;47414;43.168;44.812;2022-09-13T17:19:31;11.50;10.50;7.00
61542;PMS5003;47414;43.168;44.812;2022-09-13T17:24:32;11.00;10.50;8.00
61542;PMS5003;47414;43.168;44.812;2022-09-13T17:29:33;15.00;14.75;10.00
61542;PMS5003;47414;43.168;44.812;2022-09-13T17:34:34;13.75;12.00;7.75
61542;PMS5003;47414;43.168;44.812;2022-09-13T17:39:34;17.25;16.25;11.25
61542;PMS5003;47414;43.168;44.812;2022-09-13T17:44:34;19.00;18.25;14.25
61542;PMS5003;47414;43.168;44.812;2022-09-13T17:49:38;37.75;34.50;23.50
61542;PMS5003;47414;43.168;44.812;2022-09-13T18:00:06;36.50;33.50;21.25
61542;PMS5003;47414;43.168;44.812;2022-09-13T18:05:06;30.00;29.00;21.25
61542;PMS5003;47414;43.168;44.812;2022-09-13T18:10:07;14.75;14.00;10.00
61542;PMS5003;47414;43.168;44.812;2022-09-13T18:15:07;14.00;13.25;10.50
61542;PMS5003;47414;43.168;44.812;2022-09-13T18:20:08;10.25;10.25;7.00
61542;PMS5003;47414;43.168;44.812;2022-09-13T18:25:08;14.75;13.50;11.25
61542;PMS5003;47414;43.168;44.812;2022-09-13T18:30:08;12.25;12.00;8.25
61542;PMS5003;47414;43.168;44.812;2022-09-13T18:35:09;20.25;19.75;14.00
61542;PMS5003;47414;43.168;44.812;2022-09-13T18:40:09;19.75;18.50;13.00
61542;PMS5003;47414;43.168;44.812;2022-09-13T18:45:10;21.25;20.75;14.00
61542;PMS5003;47414;43.168;44.812;2022-09-13T18:50:10;23.25;22.00;16.50
61542;PMS5003;47414;43.168;44.812;2022-09-13T18:55:10;22.00;22.00;16.25
61542;PMS5003;47414;43.168;44.812;2022-09-13T19:00:11;25.00;24.25;17.25
61542;PMS5003;47414;43.168;44.812;2022-09-13T19:05:11;24.50;23.50;16.00
61542;PMS5003;47414;43.168;44.812;2022-09-13T19:10:11;25.25;24.75;16.25
61542;PMS5003;47414;43.168;44.812;2022-09-13T19:15:12;21.25;21.25;14.50
61542;PMS5003;47414;43.168;44.812;2022-09-13T19:20:12;25.50;25.00;18.50
61542;PMS5003;47414;43.168;44.812;2022-09-13T19:25:13;31.75;27.75;16.75
61542;PMS5003;47414;43.168;44.812;2022-09-13T19:30:13;22.50;20.25;13.75
61542;PMS5003;47414;43.168;44.812;2022-09-13T19:35:13;106.33;95.00;56.00
61542;PMS5003;47414;43.168;44.812;2022-09-13T19:40:14;25.50;22.75;15.50
61542;PMS5003;47414;43.168;44.812;2022-09-13T19:45:14;25.00;23.75;17.25
61542;PMS5003;47414;43.168;44.812;2022-09-13T19:50:15;25.25;24.75;16.75
61542;PMS5003;47414;43.168;44.812;2022-09-13T19:55:15;34.25;31.75;19.50
61542;PMS5003;47414;43.168;44.812;2022-09-13T20:00:15;30.50;27.50;17.25
61542;PMS5003;47414;43.168;44.812;2022-09-13T20:05:16;27.25;26.00;19.25
61542;PMS5003;47414;43.168;44.812;2022-09-13T20:10:16;32.75;30.75;18.50
61542;PMS5003;47414;43.168;44.812;2022-09-13T20:15:16;33.75;31.50;20.25
61542;PMS5003;47414;43.168;44.812;2022-09-13T20:20:17;32.00;30.75;19.50
61542;PMS5003;47414;43.168;44.812;2022-09-13T20:25:17;31.75;30.50;18.75
61542;PMS5003;47414;43.168;44.812;2022-09-13T20:30:18;32.00;28.00;20.25
61542;PMS5003;47414;43.168;44.812;2022-09-13T20:35:18;36.20;32.20;21.20
61542;PMS5003;47414;43.168;44.812;2022-09-13T20:40:18;37.50;30.50;19.75
61542;PMS5003;47414;43.168;44.812;2022-09-13T20:45:19;35.60;33.20;21.40
61542;PMS5003;47414;43.168;44.812;2022-09-13T20:50:19;48.50;40.50;24.25
61542;PMS5003;47414;43.168;44.812;2022-09-13T20:55:19;37.25;31.25;20.50
61542;PMS5003;47414;43.168;44.812;2022-09-13T21:00:20;32.25;31.75;22.00
61542;PMS5003;47414;43.168;44.812;2022-09-13T21:05:20;34.50;31.75;21.00
61542;PMS5003;47414;43.168;44.812;2022-09-13T21:10:20;25.00;22.25;17.75
61542;PMS5003;47414;43.168;44.812;2022-09-13T21:15:21;25.25;23.50;14.25
61542;PMS5003;47414;43.168;44.812;2022-09-13T21:20:21;23.25;22.50;14.75
61542;PMS5003;47414;43.168;44.812;2022-09-13T21:25:21;29.00;27.75;17.25
61542;PMS5003;47414;43.168;44.812;2022-09-13T21:30:22;29.75;29.00;17.25
61542;PMS5003;47414;43.168;44.812;2022-09-13T21:35:22;28.00;25.25;16.25
61542;PMS5003;47414;43.168;44.812;2022-09-13T21:40:22;28.75;25.25;18.00
61542;PMS5003;47414;43.168;44.812;2022-09-13T21:45:23;28.50;27.25;17.75
61542;PMS5003;47414;43.168;44.812;2022-09-13T21:50:23;32.00;29.25;20.25
61542;PMS5003;47414;43.168;44.812;2022-09-13T21:55:23;30.00;29.25;19.00
61542;PMS5003;47414;43.168;44.812;2022-09-13T22:00:24;35.00;32.50;21.75
61542;PMS5003;47414;43.168;44.812;2022-09-13T22:05:24;35.00;30.75;19.25
61542;PMS5003;47414;43.168;44.812;2022-09-13T22:10:24;35.25;33.50;23.00
61542;PMS5003;47414;43.168;44.812;2022-09-13T22:15:25;28.25;28.00;21.25
61542;PMS5003;47414;43.168;44.812;2022-09-13T22:20:25;33.75;32.75;19.75
61542;PMS5003;47414;43.168;44.812;2022-09-13T22:25:27;35.25;33.00;20.50
61542;PMS5003;47414;43.168;44.812;2022-09-13T22:30:27;32.50;30.75;19.25
61542;PMS5003;47414;43.168;44.812;2022-09-13T22:35:28;36.00;33.50;21.75
61542;PMS5003;47414;43.168;44.812;2022-09-13T22:40:28;27.75;26.00;18.50
61542;PMS5003;47414;43.168;44.812;2022-09-13T22:45:28;23.00;22.50;15.50
61542;PMS5003;47414;43.168;44.812;2022-09-13T22:50:28;23.75;22.00;15.00
61542;PMS5003;47414;43.168;44.812;2022-09-13T22:55:29;26.25;26.25;16.75
61542;PMS5003;47414;43.168;44.812;2022-09-13T23:00:32;22.75;21.25;14.00
61542;PMS5003;47414;43.168;44.812;2022-09-13T23:05:33;24.50;23.25;17.25
61542;PMS5003;47414;43.168;44.812;2022-09-13T23:10:34;22.00;21.25;14.50
61542;PMS5003;47414;43.168;44.812;2022-09-13T23:15:34;24.25;22.75;14.50
61542;PMS5003;47414;43.168;44.812;2022-09-13T23:20:35;21.25;20.25;13.50
61542;PMS5003;47414;43.168;44.812;2022-09-13T23:25:35;18.00;14.50;10.75
61542;PMS5003;47414;43.168;44.812;2022-09-13T23:30:35;19.00;17.00;12.00
61542;PMS5003;47414;43.168;44.812;2022-09-13T23:35:36;19.00;17.25;12.25
61542;PMS5003;47414;43.168;44.812;2022-09-13T23:40:36;15.75;13.75;10.75
61542;PMS5003;47414;43.168;44.812;2022-09-13T23:45:37;21.00;20.00;15.00
61542;PMS5003;47414;43.168;44.812;2022-09-13T23:50:37;28.00;24.80;14.80
61542;PMS5003;47414;43.168;44.812;2022-09-13T23:55:37;24.00;23.75;15.25
